createdAt,value
2018-06-27T00:02:01.052Z,21.67
2018-06-27T00:04:28.628Z,22.77
2018-06-27T00:06:56.244Z,21.50
2018-06-27T00:09:24.593Z,22.80
2018-06-27T00:11:52.176Z,21.13
2018-06-27T00:14:19.829Z,27.62
2018-06-27T00:16:47.417Z,23.27
2018-06-27T00:19:15.021Z,26.92
2018-06-27T00:21:42.609Z,23.93
2018-06-27T00:24:10.184Z,24.17
2018-06-27T00:26:37.765Z,23.23
2018-06-27T00:29:06.144Z,27.23
2018-06-27T00:31:33.724Z,23.00
2018-06-27T00:34:01.298Z,23.03
2018-06-27T00:36:29.297Z,22.83
2018-06-27T00:38:56.872Z,22.00
2018-06-27T00:41:24.444Z,21.63
2018-06-27T00:43:52.052Z,22.40
2018-06-27T00:46:19.625Z,21.50
2018-06-27T00:48:47.196Z,22.00
2018-06-27T00:51:14.789Z,21.77
2018-06-27T00:53:44.981Z,22.10
2018-06-27T00:56:12.545Z,21.30
2018-06-27T00:58:40.161Z,21.17
2018-06-27T01:01:08.486Z,21.77
2018-06-27T01:03:36.049Z,26.02
2018-06-27T01:06:03.659Z,26.65
2018-06-27T01:08:31.221Z,27.10
2018-06-27T01:10:59.556Z,22.93
2018-06-27T01:13:27.150Z,22.13
2018-06-27T01:15:55.480Z,23.23
2018-06-27T01:18:23.041Z,21.53
2018-06-27T01:20:51.123Z,22.20
2018-06-27T01:23:18.688Z,22.37
2018-06-27T01:25:46.254Z,23.27
2018-06-27T01:28:13.848Z,24.53
2018-06-27T01:30:42.184Z,22.67
2018-06-27T01:33:09.741Z,23.00
2018-06-27T01:35:37.335Z,23.33
2018-06-27T01:38:04.897Z,22.27
2018-06-27T01:40:32.460Z,22.87
2018-06-27T01:43:00.524Z,23.87
2018-06-27T01:45:28.087Z,22.00
2018-06-27T01:47:55.648Z,22.60
2018-06-27T01:50:23.243Z,22.90
2018-06-27T01:52:50.800Z,24.17
2018-06-27T01:55:18.361Z,23.63
2018-06-27T01:57:46.720Z,23.40
2018-06-27T02:00:14.279Z,24.37
2018-06-27T02:02:41.838Z,25.10
2018-06-27T02:05:09.447Z,23.87
2018-06-27T02:07:37.013Z,23.83
2018-06-27T02:10:04.569Z,23.60
2018-06-27T02:12:32.161Z,24.77
2018-06-27T02:14:59.724Z,24.27
2018-06-27T02:17:27.282Z,23.77
2018-06-27T02:19:54.872Z,22.77
2018-06-27T02:22:22.434Z,23.33
2018-06-27T02:24:50.002Z,20.83
2018-06-27T02:27:18.389Z,23.17
2018-06-27T02:29:46.711Z,21.70
2018-06-27T02:32:14.278Z,22.47
2018-06-27T02:34:41.874Z,22.97
2018-06-27T02:37:09.441Z,24.30
2018-06-27T02:39:37.774Z,23.40
2018-06-27T02:42:05.370Z,23.50
2018-06-27T02:44:32.922Z,25.87
2018-06-27T02:47:00.483Z,24.60
2018-06-27T02:49:28.105Z,23.27
2018-06-27T02:51:55.658Z,24.37
2018-06-27T02:54:23.223Z,24.23
2018-06-27T02:56:50.820Z,22.33
2018-06-27T02:59:18.380Z,22.97
2018-06-27T03:01:45.943Z,28.98
2018-06-27T03:04:13.529Z,27.95
2018-06-27T03:06:41.097Z,23.70
2018-06-27T03:09:09.420Z,25.10
2018-06-27T03:11:37.033Z,23.17
2018-06-27T03:14:05.369Z,22.10
2018-06-27T03:16:32.937Z,23.00
2018-06-27T03:19:00.524Z,23.03
2018-06-27T03:21:28.088Z,23.00
2018-06-27T03:23:55.652Z,22.70
2018-06-27T03:26:23.249Z,22.70
2018-06-27T03:28:50.804Z,23.23
2018-06-27T03:31:18.360Z,21.60
2018-06-27T03:33:46.040Z,23.00
2018-06-27T03:36:13.538Z,22.77
2018-06-27T03:38:41.098Z,28.85
2018-06-27T03:41:08.697Z,29.98
2018-06-27T03:43:37.031Z,23.60
2018-06-27T03:46:04.592Z,23.73
2018-06-27T03:48:32.197Z,21.87
2018-06-27T03:50:59.755Z,29.02
2018-06-27T03:53:28.088Z,22.33
2018-06-27T03:55:55.701Z,21.37
2018-06-27T03:58:23.263Z,22.27
2018-06-27T04:00:51.595Z,22.33
2018-06-27T04:03:19.184Z,20.83
2018-06-27T04:05:46.745Z,23.37
2018-06-27T04:08:14.309Z,27.98
2018-06-27T04:10:41.937Z,29.73
2018-06-27T04:13:09.574Z,23.27
2018-06-27T04:15:37.060Z,22.70
2018-06-27T04:18:04.680Z,21.30
2018-06-27T04:20:32.237Z,22.57
2018-06-27T04:23:00.567Z,22.27
2018-06-27T04:25:28.159Z,21.80
2018-06-27T04:27:55.717Z,21.83
2018-06-27T04:30:23.282Z,21.30
2018-06-27T04:32:50.877Z,21.17
2018-06-27T04:35:18.437Z,19.97
2018-06-27T04:37:46.006Z,22.20
2018-06-27T04:40:13.612Z,19.73
2018-06-27T04:42:41.169Z,21.87
2018-06-27T04:45:08.734Z,28.45
2018-06-27T04:47:36.326Z,22.83
2018-06-27T04:50:03.896Z,21.63
2018-06-27T04:52:31.460Z,22.47
2018-06-27T04:54:59.200Z,21.67
2018-06-27T04:57:26.627Z,21.50
2018-06-27T04:59:54.187Z,21.33
2018-06-27T05:02:21.790Z,27.02
2018-06-27T05:04:50.124Z,27.75
2018-06-27T05:07:17.682Z,23.90
2018-06-27T05:09:45.278Z,19.87
2018-06-27T05:12:12.836Z,20.97
2018-06-27T05:14:40.398Z,21.07
2018-06-27T05:17:07.998Z,21.03
2018-06-27T05:19:35.556Z,19.03
2018-06-27T05:22:03.110Z,19.50
2018-06-27T05:24:30.727Z,18.10
2018-06-27T05:26:58.284Z,18.33
2018-06-27T05:29:25.842Z,22.70
2018-06-27T05:31:53.435Z,17.47
2018-06-27T05:34:20.994Z,17.20
2018-06-27T05:36:49.344Z,16.67
2018-06-27T05:39:16.955Z,16.17
2018-06-27T05:41:45.286Z,20.62
2018-06-27T05:44:12.866Z,16.93
2018-06-27T05:46:40.486Z,18.50
2018-06-27T05:49:08.056Z,16.30
2018-06-27T05:51:35.633Z,15.13
2018-06-27T05:54:03.210Z,14.77
2018-06-27T05:56:30.771Z,14.97
2018-06-27T05:58:58.349Z,15.13
2018-06-27T06:01:25.945Z,18.08
2018-06-27T06:03:53.502Z,15.97
2018-06-27T06:06:21.071Z,14.93
2018-06-27T06:08:48.691Z,13.87
2018-06-27T06:11:17.087Z,13.77
2018-06-27T06:13:44.580Z,13.20
2018-06-27T06:16:12.165Z,13.33
2018-06-27T06:18:39.733Z,13.97
2018-06-27T06:21:07.299Z,12.17
2018-06-27T06:23:34.897Z,13.40
2018-06-27T06:26:02.462Z,15.75
2018-06-27T06:28:30.020Z,13.70
2018-06-27T06:30:58.088Z,15.00
2018-06-27T06:33:26.412Z,12.67
2018-06-27T06:35:53.968Z,11.80
2018-06-27T06:38:21.565Z,12.23
2018-06-27T06:40:49.223Z,11.47
2018-06-27T06:43:16.682Z,10.73
2018-06-27T06:45:44.284Z,11.20
2018-06-27T06:48:11.847Z,10.70
2018-06-27T06:50:39.443Z,10.80
2018-06-27T06:53:07.634Z,10.27
2018-06-27T06:55:35.176Z,10.10
2018-06-27T06:58:02.736Z,9.57
2018-06-27T07:00:30.336Z,9.60
2018-06-27T07:02:57.901Z,9.63
2018-06-27T07:05:26.229Z,9.03
2018-06-27T07:07:54.269Z,9.50
2018-06-27T07:10:21.832Z,9.33
2018-06-27T07:12:49.393Z,8.37
2018-06-27T07:15:17.769Z,9.13
2018-06-27T07:17:45.370Z,8.63
2018-06-27T07:20:13.644Z,9.07
2018-06-27T07:22:41.245Z,8.97
2018-06-27T07:25:08.810Z,8.40
2018-06-27T07:27:36.371Z,8.70
2018-06-27T07:30:04.360Z,8.30
2018-06-27T07:32:32.677Z,8.00
2018-06-27T07:35:01.212Z,8.30
2018-06-27T07:37:29.587Z,7.17
2018-06-27T07:39:57.143Z,8.07
2018-06-27T07:42:24.699Z,7.60
2018-06-27T07:44:52.339Z,7.47
2018-06-27T07:47:19.899Z,8.80
2018-06-27T07:49:47.461Z,7.50
2018-06-27T07:52:15.068Z,7.17
2018-06-27T07:54:43.389Z,7.23
2018-06-27T07:57:10.952Z,7.00
2018-06-27T07:59:39.017Z,6.20
2018-06-27T08:02:06.572Z,7.10
2018-06-27T08:04:34.130Z,7.20
2018-06-27T08:07:01.736Z,7.50
2018-06-27T08:09:29.298Z,7.20
2018-06-27T08:11:56.859Z,7.85
2018-06-27T08:14:24.498Z,7.15
2018-06-27T08:16:52.058Z,7.10
2018-06-27T08:19:19.609Z,6.00
2018-06-27T08:21:47.250Z,6.67
2018-06-27T08:24:14.807Z,6.43
2018-06-27T08:26:42.362Z,5.90
2018-06-27T08:29:10.759Z,6.03
2018-06-27T08:31:38.324Z,6.30
2018-06-27T08:34:05.882Z,5.80
2018-06-27T08:36:33.492Z,4.80
2018-06-27T08:39:01.048Z,3.90
2018-06-27T08:41:28.607Z,4.53
2018-06-27T08:43:56.228Z,4.72
2018-06-27T08:46:23.785Z,4.50
2018-06-27T08:48:51.346Z,4.32
2018-06-27T08:51:19.044Z,3.87
2018-06-27T08:53:46.690Z,3.47
2018-06-27T08:56:14.335Z,3.57
2018-06-27T08:58:41.989Z,3.27
2018-06-27T09:01:10.299Z,3.37
2018-06-27T09:03:37.855Z,3.00
2018-06-27T09:06:05.490Z,3.17
2018-06-27T09:08:33.056Z,3.33
2018-06-27T09:11:00.608Z,2.50
2018-06-27T09:13:28.973Z,2.97
2018-06-27T09:15:57.292Z,3.10
2018-06-27T09:18:24.850Z,2.50
2018-06-27T09:20:52.455Z,2.67
2018-06-27T09:23:20.013Z,2.40
2018-06-27T09:25:47.561Z,2.85
2018-06-27T09:28:15.200Z,2.20
2018-06-27T09:30:42.762Z,2.03
2018-06-27T09:33:11.100Z,2.63
2018-06-27T09:35:39.473Z,3.67
2018-06-27T09:38:07.035Z,3.03
2018-06-27T09:40:34.599Z,2.37
2018-06-27T09:43:02.209Z,2.50
2018-06-27T09:45:29.763Z,2.47
2018-06-27T09:47:57.319Z,2.47
2018-06-27T09:50:24.972Z,2.70
2018-06-27T09:52:52.481Z,2.80
2018-06-27T09:55:20.046Z,2.60
2018-06-27T09:57:47.654Z,2.57
2018-06-27T10:00:15.220Z,2.47
2018-06-27T10:02:42.779Z,2.70
2018-06-27T10:05:10.421Z,2.87
2018-06-27T10:07:38.762Z,2.83
2018-06-27T10:10:06.301Z,2.83
2018-06-27T10:12:35.011Z,3.00
2018-06-27T10:15:02.570Z,2.97
2018-06-27T10:17:30.131Z,2.57
2018-06-27T10:19:58.111Z,2.90
2018-06-27T10:22:25.711Z,2.83
2018-06-27T10:24:53.230Z,2.83
2018-06-27T10:27:20.879Z,2.83
2018-06-27T10:29:48.443Z,2.73
2018-06-27T10:32:16.006Z,2.70
2018-06-27T10:34:43.647Z,2.90
2018-06-27T10:37:11.211Z,2.70
2018-06-27T10:39:38.794Z,2.50
2018-06-27T10:42:07.081Z,2.70
2018-06-27T10:44:34.674Z,2.43
2018-06-27T10:47:02.198Z,2.50
2018-06-27T10:49:29.838Z,2.30
2018-06-27T10:51:57.397Z,2.37
2018-06-27T10:54:24.952Z,2.87
2018-06-27T10:56:52.558Z,2.90
2018-06-27T10:59:20.119Z,2.77
2018-06-27T11:01:47.678Z,3.12
2018-06-27T11:04:15.280Z,2.90
2018-06-27T11:06:42.840Z,3.12
2018-06-27T11:09:10.398Z,3.10
2018-06-27T11:11:40.071Z,2.80
2018-06-27T11:14:07.652Z,2.77
2018-06-27T11:16:35.194Z,3.40
2018-06-27T11:19:02.788Z,3.00
2018-06-27T11:21:31.112Z,2.92
2018-06-27T11:23:58.677Z,2.83
2018-06-27T11:26:26.275Z,2.80
2018-06-27T11:28:53.837Z,2.67
2018-06-27T11:31:22.165Z,2.87
2018-06-27T11:33:49.776Z,3.00
2018-06-27T11:36:17.330Z,3.10
2018-06-27T11:38:44.939Z,2.93
2018-06-27T11:41:13.656Z,2.83
2018-06-27T11:43:42.214Z,2.77
2018-06-27T11:46:08.769Z,3.00
2018-06-27T11:48:37.257Z,3.30
2018-06-27T11:51:04.813Z,1.83
2018-06-27T11:53:32.373Z,2.13
2018-06-27T11:55:59.971Z,1.93
2018-06-27T11:58:27.524Z,2.10
2018-06-27T12:00:55.082Z,2.10
2018-06-27T12:03:22.722Z,2.37
2018-06-27T12:05:50.293Z,2.10
2018-06-27T12:08:17.847Z,2.20
2018-06-27T12:10:45.454Z,2.37
2018-06-27T12:13:13.780Z,2.70
2018-06-27T12:15:41.339Z,2.43
2018-06-27T12:18:08.950Z,2.30
2018-06-27T12:20:37.333Z,2.30
2018-06-27T12:23:05.657Z,2.30
2018-06-27T12:25:33.271Z,2.30
2018-06-27T12:28:01.605Z,2.50
2018-06-27T12:30:29.166Z,2.43
2018-06-27T12:32:56.776Z,2.10
2018-06-27T12:35:25.102Z,2.17
2018-06-27T12:37:52.660Z,2.33
2018-06-27T12:40:20.278Z,2.33
2018-06-27T12:42:48.604Z,2.40
2018-06-27T12:45:16.171Z,2.60
2018-06-27T12:47:44.659Z,2.20
2018-06-27T12:50:12.250Z,2.60
2018-06-27T12:52:39.770Z,2.20
2018-06-27T12:55:07.416Z,2.87
2018-06-27T12:57:34.973Z,2.40
2018-06-27T13:00:02.534Z,2.53
2018-06-27T13:02:30.143Z,2.90
2018-06-27T13:04:57.702Z,2.60
2018-06-27T13:07:25.262Z,2.47
2018-06-27T13:09:53.321Z,2.50
2018-06-27T13:12:20.872Z,2.80
2018-06-27T13:14:48.434Z,2.60
2018-06-27T13:17:16.523Z,2.50
2018-06-27T13:19:44.850Z,2.30
2018-06-27T13:22:13.180Z,3.07
2018-06-27T13:24:41.452Z,2.50
2018-06-27T13:27:09.014Z,2.03
2018-06-27T13:29:36.572Z,2.10
2018-06-27T13:32:04.160Z,2.17
2018-06-27T13:34:31.721Z,2.10
2018-06-27T13:36:59.283Z,2.78
2018-06-27T13:39:26.898Z,2.25
2018-06-27T13:41:54.455Z,2.20
2018-06-27T13:44:22.014Z,2.23
2018-06-27T13:46:50.220Z,2.20
2018-06-27T13:49:17.777Z,1.83
2018-06-27T13:51:45.339Z,2.20
2018-06-27T13:54:13.412Z,4.67
2018-06-27T13:56:40.973Z,1.73
2018-06-27T13:59:08.533Z,2.00
2018-06-27T14:01:36.618Z,1.90
2018-06-27T14:04:04.179Z,2.03
2018-06-27T14:06:31.800Z,2.20
2018-06-27T14:08:59.370Z,1.87
2018-06-27T14:11:26.934Z,2.40
2018-06-27T14:13:54.493Z,1.57
2018-06-27T14:16:22.134Z,2.10
2018-06-27T14:18:50.489Z,1.90
2018-06-27T14:21:18.016Z,1.47
2018-06-27T14:23:46.199Z,1.77
2018-06-27T14:26:13.772Z,1.53
2018-06-27T14:28:41.333Z,1.80
2018-06-27T14:31:08.955Z,1.60
2018-06-27T14:33:36.514Z,1.20
2018-06-27T14:36:04.094Z,1.47
2018-06-27T14:38:31.702Z,1.70
2018-06-27T14:40:59.266Z,1.47
2018-06-27T14:43:27.595Z,1.47
2018-06-27T14:45:55.234Z,1.50
2018-06-27T14:48:22.794Z,1.90
2018-06-27T14:50:50.355Z,1.70
2018-06-27T14:53:18.769Z,1.70
2018-06-27T14:55:46.335Z,1.70
2018-06-27T14:58:13.893Z,1.40
2018-06-27T15:00:41.500Z,1.52
2018-06-27T15:03:09.060Z,1.50
2018-06-27T15:05:37.391Z,1.60
2018-06-27T15:08:06.106Z,1.40
2018-06-27T15:10:33.674Z,1.60
2018-06-27T15:13:01.238Z,1.33
2018-06-27T15:15:29.620Z,1.47
2018-06-27T15:17:57.944Z,1.70
2018-06-27T15:20:25.501Z,1.37
2018-06-27T15:22:53.125Z,1.20
2018-06-27T15:25:21.462Z,1.30
2018-06-27T15:27:49.039Z,1.70
2018-06-27T15:30:16.663Z,1.30
2018-06-27T15:32:44.224Z,1.70
2018-06-27T15:35:11.791Z,2.00
2018-06-27T15:37:39.778Z,1.30
2018-06-27T15:40:07.350Z,1.13
2018-06-27T15:42:34.908Z,1.20
2018-06-27T15:45:02.564Z,1.40
2018-06-27T15:47:30.127Z,1.30
2018-06-27T15:49:57.763Z,1.30
2018-06-27T15:52:25.309Z,1.40
2018-06-27T15:54:52.898Z,1.50
2018-06-27T15:57:20.460Z,1.27
2018-06-27T15:59:49.257Z,1.13
2018-06-27T16:02:16.838Z,1.40
2018-06-27T16:04:44.398Z,1.37
2018-06-27T16:07:12.127Z,1.60
2018-06-27T16:09:40.440Z,1.47
2018-06-27T16:12:08.944Z,1.03
2018-06-27T16:14:36.580Z,1.42
2018-06-27T16:17:04.223Z,1.63
2018-06-27T16:19:32.544Z,1.90
2018-06-27T16:22:00.585Z,2.10
2018-06-27T16:24:28.145Z,2.10
2018-06-27T16:26:55.835Z,2.00
2018-06-27T16:29:24.359Z,2.27
2018-06-27T16:31:54.706Z,2.53
2018-06-27T16:34:20.234Z,2.67
2018-06-27T16:36:48.755Z,2.73
2018-06-27T16:39:16.406Z,2.50
2018-06-27T16:41:43.904Z,6.03
2018-06-27T16:44:11.558Z,2.60
2018-06-27T16:46:39.120Z,2.67
2018-06-27T16:49:06.711Z,3.00
2018-06-27T16:51:34.480Z,3.00
2018-06-27T16:54:01.929Z,2.73
2018-06-27T16:56:29.422Z,2.70
2018-06-27T16:58:57.019Z,2.87
2018-06-27T17:01:25.460Z,2.37
2018-06-27T17:03:52.909Z,2.00
2018-06-27T17:06:20.559Z,2.47
2018-06-27T17:08:48.842Z,2.23
2018-06-27T17:11:16.401Z,2.37
2018-06-27T17:13:44.013Z,2.30
2018-06-27T17:16:11.573Z,2.23
2018-06-27T17:18:39.898Z,2.27
2018-06-27T17:21:07.537Z,2.33
2018-06-27T17:23:35.094Z,2.60
2018-06-27T17:26:03.414Z,2.37
2018-06-27T17:28:31.004Z,2.40
2018-06-27T17:30:58.572Z,1.83
2018-06-27T17:33:26.130Z,2.42
2018-06-27T17:35:53.768Z,2.47
2018-06-27T17:38:21.327Z,2.17
2018-06-27T17:40:48.888Z,2.30
2018-06-27T17:43:17.064Z,1.93
2018-06-27T17:45:44.667Z,2.57
2018-06-27T17:48:12.183Z,2.37
2018-06-27T17:50:40.948Z,1.97
2018-06-27T17:53:08.511Z,1.90
2018-06-27T17:55:36.065Z,1.50
2018-06-27T17:58:04.520Z,1.73
2018-06-27T18:00:32.845Z,2.07
2018-06-27T18:03:00.412Z,1.90
2018-06-27T18:05:28.018Z,1.80
2018-06-27T18:07:56.350Z,1.80
2018-06-27T18:10:23.905Z,1.97
2018-06-27T18:12:51.515Z,2.27
2018-06-27T18:15:19.071Z,2.20
2018-06-27T18:17:46.632Z,1.90
2018-06-27T18:20:15.379Z,1.60
2018-06-27T18:22:42.943Z,2.10
2018-06-27T18:25:10.508Z,1.73
2018-06-27T18:27:38.138Z,1.80
2018-06-27T18:30:05.699Z,1.77
2018-06-27T18:32:33.262Z,1.97
2018-06-27T18:35:00.876Z,1.97
2018-06-27T18:37:28.440Z,1.80
2018-06-27T18:39:55.994Z,1.83
2018-06-27T18:42:23.615Z,1.50
2018-06-27T18:44:51.172Z,1.60
2018-06-27T18:47:18.729Z,1.60
2018-06-27T18:49:46.344Z,1.60
2018-06-27T18:52:13.914Z,1.90
2018-06-27T18:54:41.471Z,1.90
2018-06-27T18:57:09.093Z,2.00
2018-06-27T18:59:36.652Z,1.83
2018-06-27T19:02:04.210Z,1.67
2018-06-27T19:04:31.817Z,2.00
2018-06-27T19:06:59.374Z,1.70
2018-06-27T19:09:26.935Z,1.60
2018-06-27T19:11:54.542Z,1.80
2018-06-27T19:14:22.102Z,1.80
2018-06-27T19:16:49.675Z,1.57
2018-06-27T19:19:17.291Z,1.57
2018-06-27T19:21:44.847Z,1.50
2018-06-27T19:24:12.403Z,1.80
2018-06-27T19:26:40.468Z,1.80
2018-06-27T19:29:08.032Z,1.30
2018-06-27T19:31:35.585Z,1.40
2018-06-27T19:34:03.197Z,1.80
2018-06-27T19:36:31.528Z,1.90
2018-06-27T19:38:59.090Z,1.57
2018-06-27T19:41:27.106Z,1.80
2018-06-27T19:43:54.621Z,1.80
2018-06-27T19:46:22.175Z,1.90
2018-06-27T19:48:49.786Z,1.93
2018-06-27T19:51:18.176Z,1.80
2018-06-27T19:53:45.690Z,1.90
2018-06-27T19:56:13.292Z,1.90
2018-06-27T19:58:41.619Z,1.57
2018-06-27T20:01:09.177Z,1.70
2018-06-27T20:03:36.777Z,1.57
2018-06-27T20:06:04.605Z,2.00
2018-06-27T20:08:32.173Z,1.57
2018-06-27T20:10:59.776Z,1.70
2018-06-27T20:13:28.112Z,2.07
2018-06-27T20:15:55.803Z,1.90
2018-06-27T20:18:23.280Z,1.70
2018-06-27T20:20:51.603Z,1.80
2018-06-27T20:23:19.171Z,2.20
2018-06-27T20:25:46.795Z,1.87
2018-06-27T20:28:14.356Z,2.30
2018-06-27T20:30:42.151Z,2.53
2018-06-27T20:33:09.761Z,2.40
2018-06-27T20:35:37.324Z,2.40
2018-06-27T20:38:04.890Z,2.50
2018-06-27T20:40:33.258Z,2.30
2018-06-27T20:43:00.817Z,2.50
2018-06-27T20:45:28.374Z,2.43
2018-06-27T20:47:55.984Z,2.60
2018-06-27T20:50:23.546Z,2.90
2018-06-27T20:52:51.106Z,2.87
2018-06-27T20:55:18.739Z,2.73
2018-06-27T20:57:46.298Z,2.80
2018-06-27T21:00:13.856Z,2.63
2018-06-27T21:02:42.232Z,2.63
2018-06-27T21:05:09.790Z,2.90
2018-06-27T21:07:37.626Z,2.80
2018-06-27T21:10:05.243Z,2.63
2018-06-27T21:12:32.802Z,2.93
2018-06-27T21:15:00.367Z,2.70
2018-06-27T21:17:28.721Z,2.47
2018-06-27T21:19:56.281Z,2.80
2018-06-27T21:22:23.855Z,2.83
2018-06-27T21:24:51.451Z,2.80
2018-06-27T21:27:19.012Z,2.67
2018-06-27T21:29:46.571Z,2.10
2018-06-27T21:32:14.172Z,2.50
2018-06-27T21:34:41.743Z,2.00
2018-06-27T21:37:09.320Z,2.10
2018-06-27T21:39:36.879Z,2.17
2018-06-27T21:42:04.442Z,2.53
2018-06-27T21:44:32.772Z,2.23
2018-06-27T21:47:00.414Z,2.30
2018-06-27T21:49:28.314Z,2.10
2018-06-27T21:51:55.878Z,2.30
2018-06-27T21:54:23.469Z,2.10
2018-06-27T21:56:51.031Z,2.20
2018-06-27T21:59:18.590Z,2.10
2018-06-27T22:01:46.187Z,2.00
2018-06-27T22:04:13.741Z,2.20
2018-06-27T22:06:41.302Z,1.90
2018-06-27T22:09:09.431Z,1.93
2018-06-27T22:11:36.930Z,2.30
2018-06-27T22:14:04.488Z,2.27
2018-06-27T22:16:32.854Z,2.50
2018-06-27T22:19:01.196Z,2.60
2018-06-27T22:21:28.756Z,2.50
2018-06-27T22:23:56.356Z,2.20
2018-06-27T22:26:24.693Z,2.33
2018-06-27T22:28:52.255Z,2.20
2018-06-27T22:31:19.901Z,2.40
2018-06-27T22:33:47.459Z,2.50
2018-06-27T22:36:15.019Z,2.63
2018-06-27T22:38:42.616Z,2.03
2018-06-27T22:41:10.179Z,2.60
2018-06-27T22:43:37.735Z,2.60
2018-06-27T22:46:05.324Z,2.30
2018-06-27T22:48:32.887Z,2.57
2018-06-27T22:51:01.209Z,2.50
2018-06-27T22:53:28.825Z,2.50
2018-06-27T22:55:56.386Z,2.80
2018-06-27T22:58:23.950Z,2.87
2018-06-27T23:00:52.316Z,2.50
2018-06-27T23:03:19.881Z,2.43
2018-06-27T23:05:47.443Z,3.20
2018-06-27T23:08:15.040Z,2.53
2018-06-27T23:10:42.606Z,3.00
2018-06-27T23:13:10.162Z,2.60
2018-06-27T23:15:37.763Z,2.83
2018-06-27T23:18:05.318Z,3.00
2018-06-27T23:20:32.879Z,2.87
2018-06-27T23:23:00.474Z,3.23
2018-06-27T23:25:28.034Z,3.10
2018-06-27T23:27:55.594Z,3.27
2018-06-27T23:30:23.193Z,3.10
2018-06-27T23:32:50.754Z,3.30
2018-06-27T23:35:18.314Z,3.40
2018-06-27T23:37:45.916Z,3.33
2018-06-27T23:40:13.484Z,3.03
2018-06-27T23:42:41.037Z,3.40
2018-06-27T23:45:08.630Z,2.93
2018-06-27T23:47:36.192Z,3.53
2018-06-27T23:50:03.757Z,3.33
2018-06-27T23:52:32.129Z,3.33
2018-06-27T23:54:59.696Z,2.70
2018-06-27T23:57:27.251Z,2.93
2018-06-27T23:59:54.866Z,2.87
